Hub


Voltar

 INFORMAÇÕES METEOROLÓGICAS

METAR FOR KT82


ADDS - METARS form results

(2049 UTC 16 February 2019)
Data provider http://aviationweather.gov/metar/data/
 
METAR text: KT82 162035Z AUTO 08005KT 10SM CLR 18/08 A2969 RMK AO2 T01820076
Conditions at: KT82 (FREDERICKSBURG , TX, US) observed 2035 UTC 16 February 2019
Temperature: 18.2°C (65°F)
Dewpoint: 7.6°C (46°F) [RH = 50%]
Pressure (altimeter): 29.69 inches Hg (1005.5 mb)
Winds: from the E (80 degrees) at 6 MPH (5 knots; 2.6 m/s)
Visibility: 10 or more miles (16+ km)
Ceiling: at least 12,000 feet AGL
Clouds: sky clear below 12,000 feet AGL
Weather: automated observation with no human augmentation;
there may or may not be significant weather present at this time

METAR text: KT82 162015Z AUTO 09005KT 10SM CLR 17/07 A2970 RMK AO2 T01700068
Conditions at: KT82 (FREDERICKSBURG , TX, US) observed 2015 UTC 16 February 2019
Temperature: 17.0°C (63°F)
Dewpoint: 6.8°C (44°F) [RH = 51%]
Pressure (altimeter): 29.70 inches Hg (1005.8 mb)
Winds: from the E (90 degrees) at 6 MPH (5 knots; 2.6 m/s)
Visibility: 10 or more miles (16+ km)
Ceiling: at least 12,000 feet AGL
Clouds: sky clear below 12,000 feet AGL
Weather: automated observation with no human augmentation;
there may or may not be significant weather present at this time

METAR text: KT82 161955Z AUTO 00000KT 10SM CLR 17/07 A2972 RMK AO2 T01650068
Conditions at: KT82 (FREDERICKSBURG , TX, US) observed 1955 UTC 16 February 2019
Temperature: 16.5°C (62°F)
Dewpoint: 6.8°C (44°F) [RH = 53%]
Pressure (altimeter): 29.72 inches Hg (1006.5 mb)
Winds: calm
Visibility: 10 or more miles (16+ km)
Ceiling: at least 12,000 feet AGL
Clouds: sky clear below 12,000 feet AGL
Weather: automated observation with no human augmentation;
there may or may not be significant weather present at this time


 MAPA DO AEROPORTO


 INFORMAÇÕES DA PISTA

Pista 14 Tamanho da pista 5002 ft Largura da pista 75 ft
Elevação da pista 1695 ft Ranhura da pista 0 ft Proa da pista 147
Pista 32 Tamanho da pista 5002 ft Largura da pista 75 ft
Elevação da pista 1677 ft Ranhura da pista 0 ft Proa da pista 327

 FREQUÊNCIAS DO AEROPORTO

Tipo A/D Nome HOUSTON CN Frequência 134.2 MHZ
Tipo AWOS Nome AWOS 3 Frequência 120 MHZ
Tipo UNIC Nome CTAF/UNICO Frequência 122.7 MHZ

 AUXÍLIOS DE NAVEGAÇÃO PRÓXIMOS AO AEROPORTO